Time;durP1;ratioP1;P1;durP2;ratioP2;P2;SDS_P1;SDS_P2;PMS_P1;PMS_P2;Temp;Humidity;BMP_temperature;BMP_pressure;BME280_temperature;BME280_humidity;BME280_pressure;Samples;Min_cycle;Max_cycle;Signal;HPM_P1;HPM_P2
2022/11/11 00:03:02;;;;;;;9.48;4.32;;;11.00;81.00;;;;;;9176444;19;20450;-65
2022/11/11 00:06:24;;;;;;;;;;;11.00;81.10;;;;;;9178139;19;20325;-63
2022/11/11 00:09:46;;;;;;;11.82;4.28;;;11.00;81.10;;;;;;9176477;19;19932;-64
2022/11/11 00:13:09;;;;;;;9.80;4.88;;;11.00;81.00;;;;;;9176037;19;20022;-63
2022/11/11 00:25:04;;;;;;;12.15;4.10;;;11.00;81.10;;;;;;9175803;19;20015;-64
2022/11/11 00:27:32;;;;;;;18.38;4.78;;;10.90;81.10;;;;;;9182158;19;20033;-63
2022/11/11 00:31:02;;;;;;;15.63;5.35;;;10.90;81.20;;;;;;9180285;19;20022;-64
2022/11/11 00:34:25;;;;;;;11.63;4.88;;;10.90;81.20;;;;;;9182971;19;20019;-63
2022/11/11 00:37:47;;;;;;;14.68;5.28;;;10.90;81.20;;;;;;9182192;19;20007;-63
2022/11/11 00:41:11;;;;;;;17.30;4.55;;;10.80;81.20;;;;;;9183523;19;20018;-64
2022/11/11 00:44:33;;;;;;;13.43;4.57;;;10.90;81.30;;;;;;9182616;19;20014;-65
2022/11/11 00:51:31;;;;;;;12.85;5.22;;;10.80;81.30;;;;;;9182468;19;20015;-65
2022/11/11 00:54:56;;;;;;;10.00;4.65;;;10.80;81.30;;;;;;9175300;19;20019;-64
2022/11/11 00:58:18;;;;;;;13.82;4.85;;;10.80;81.40;;;;;;9180869;19;20007;-61
2022/11/11 01:01:41;;;;;;;14.90;4.97;;;10.80;81.40;;;;;;9182307;19;20011;-64
2022/11/11 01:05:03;;;;;;;14.70;4.90;;;10.70;81.30;;;;;;9182735;19;20018;-64
2022/11/11 01:08:26;;;;;;;13.85;5.35;;;10.70;81.40;;;;;;9182851;19;20019;-63
2022/11/11 01:11:51;;;;;;;12.27;5.00;;;10.70;81.40;;;;;;9182301;19;20021;-63
2022/11/11 01:15:14;;;;;;;17.30;5.70;;;10.70;81.50;;;;;;9182356;19;20098;-62
2022/11/11 01:18:36;;;;;;;14.43;5.00;;;10.70;81.50;;;;;;9179647;19;20018;-64
2022/11/11 01:21:58;;;;;;;14.32;5.15;;;10.70;81.50;;;;;;9181967;19;20038;-64
2022/11/11 01:25:21;;;;;;;12.10;4.95;;;10.70;81.50;;;;;;9180862;19;20758;-64
2022/11/11 01:28:45;;;;;;;15.82;5.18;;;10.70;81.50;;;;;;9178876;19;20018;-64
2022/11/11 01:32:08;;;;;;;11.65;5.28;;;10.70;81.60;;;;;;9179257;19;20025;-63
2022/11/11 01:35:30;;;;;;;16.23;6.82;;;10.70;81.60;;;;;;9181944;19;20462;-63
2022/11/11 01:38:55;;;;;;;23.60;5.75;;;10.60;81.50;;;;;;9180324;19;20014;-64
2022/11/11 01:42:18;;;;;;;14.48;5.90;;;10.60;82.20;;;;;;9179826;19;20014;-64
2022/11/11 01:46:04;;;;;;;13.57;5.38;;;10.60;81.60;;;;;;9181122;19;20022;-64
2022/11/11 01:49:33;;;;;;;11.25;6.18;;;10.60;81.80;;;;;;9182021;19;20052;-63
2022/11/11 01:52:56;;;;;;;16.23;5.15;;;10.60;81.70;;;;;;9175644;19;20085;-63
2022/11/11 01:56:18;;;;;;;13.00;5.25;;;10.60;81.70;;;;;;9179701;19;20011;-67
2022/11/11 01:59:44;;;;;;;20.45;6.38;;;10.60;81.80;;;;;;9178861;19;20014;-63
2022/11/11 02:03:11;;;;;;;17.63;6.53;;;10.60;81.80;;;;;;9178610;19;20026;-65
2022/11/11 02:06:33;;;;;;;16.13;6.53;;;10.60;81.80;;;;;;9180321;19;20038;-62
2022/11/11 02:09:56;;;;;;;19.67;7.30;;;10.60;81.80;;;;;;9180000;19;20031;-65
2022/11/11 02:16:55;;;;;;;16.02;7.80;;;10.60;81.90;;;;;;9179960;19;20010;-65
2022/11/11 02:20:26;;;;;;;24.88;8.35;;;10.60;81.90;;;;;;9176938;19;20349;-62
2022/11/11 02:23:57;;;;;;;20.67;9.00;;;10.70;82.00;;;;;;9178164;19;20106;-64
2022/11/11 02:27:21;;;;;;;20.67;9.68;;;10.70;82.00;;;;;;9179918;19;20361;-62
2022/11/11 02:30:43;;;;;;;19.83;8.65;;;10.70;82.00;;;;;;9179145;19;20035;-63
2022/11/11 02:34:05;;;;;;;23.40;9.80;;;10.70;82.00;;;;;;9179407;19;20014;-63
2022/11/11 02:37:28;;;;;;;25.33;10.68;;;10.70;82.10;;;;;;9178913;19;20468;-62
2022/11/11 02:44:29;;;;;;;16.38;10.02;;;10.70;82.10;;;;;;9179700;19;20391;-62
2022/11/11 02:47:51;;;;;;;18.15;9.18;;;10.80;82.20;;;;;;9179028;19;20026;-62
2022/11/11 02:51:14;;;;;;;23.40;11.40;;;10.80;82.20;;;;;;9177159;19;20027;-65
2022/11/11 02:54:38;;;;;;;24.20;11.18;;;10.80;82.20;;;;;;9170127;19;20057;-64
2022/11/11 02:58:02;;;;;;;27.15;11.50;;;10.80;82.20;;;;;;9178820;19;20015;-62
2022/11/11 03:01:24;;;;;;;22.70;11.55;;;10.80;82.20;;;;;;9178450;19;20011;-68
2022/11/11 03:04:47;;;;;;;24.33;11.95;;;10.80;82.20;;;;;;9178826;19;20021;-65
2022/11/11 03:08:10;;;;;;;26.35;11.30;;;10.90;82.30;;;;;;9176710;19;20010;-63
2022/11/11 03:11:37;;;;;;;23.50;11.27;;;10.90;82.30;;;;;;9178220;19;20284;-62
2022/11/11 03:15:01;;;;;;;27.27;12.93;;;10.90;82.30;;;;;;9178793;19;20018;-63
2022/11/11 03:18:22;;;;;;;25.85;12.57;;;10.90;82.30;;;;;;9178421;19;20027;-65
2022/11/11 03:21:44;;;;;;;33.10;13.23;;;10.90;82.30;;;;;;9174641;19;20018;-63
2022/11/11 03:25:38;;;;;;;23.77;12.68;;;10.90;82.40;;;;;;9175713;19;20085;-62
2022/11/11 03:29:01;;;;;;;;;;;10.90;82.40;;;;;;9178692;19;20018;-65
2022/11/11 03:32:25;;;;;;;28.27;13.52;;;11.00;82.40;;;;;;9177756;19;20679;-65
2022/11/11 03:35:48;;;;;;;30.55;12.88;;;11.00;82.30;;;;;;9176876;19;20014;-63
2022/11/11 03:39:09;;;;;;;26.75;12.20;;;11.00;82.40;;;;;;9175127;19;20029;-64
2022/11/11 03:42:31;;;;;;;26.17;11.75;;;11.00;82.40;;;;;;9177754;19;20014;-63
2022/11/11 03:45:54;;;;;;;26.02;12.25;;;11.00;82.50;;;;;;9177577;19;20014;-65
2022/11/11 03:49:18;;;;;;;28.65;12.63;;;11.00;82.50;;;;;;9176099;19;20014;-62
2022/11/11 03:52:42;;;;;;;;;;;11.00;82.50;;;;;;9178212;19;20013;-62
2022/11/11 03:56:04;;;;;;;22.00;11.75;;;11.00;82.50;;;;;;9175480;19;19915;-66
2022/11/11 03:59:26;;;;;;;22.77;11.77;;;11.00;82.40;;;;;;9175344;19;20010;-63
2022/11/11 04:17:13;;;;;;;22.63;11.45;;;11.10;82.60;;;;;;9173298;19;20248;-63
2022/11/11 04:32:34;;;;;;;28.63;11.70;;;11.10;82.60;;;;;;9175400;19;20010;-63
2022/11/11 04:35:22;;;;;;;22.77;12.18;;;11.10;82.70;;;;;;9173831;19;20019;-64
2022/11/11 04:42:22;;;;;;;24.80;11.73;;;11.10;82.70;;;;;;9174769;19;20630;-63
2022/11/11 04:45:44;;;;;;;22.85;11.48;;;11.20;82.80;;;;;;9174806;19;20023;-63
2022/11/11 04:49:06;;;;;;;21.73;11.48;;;11.20;82.80;;;;;;9172324;19;20129;-63
2022/11/11 04:52:29;;;;;;;28.50;11.93;;;11.20;82.90;;;;;;9174238;19;20447;-63
2022/11/11 04:59:29;;;;;;;22.77;11.10;;;11.20;82.80;;;;;;9170454;19;20030;-65
2022/11/11 05:10:06;;;;;;;19.38;11.35;;;11.20;82.80;;;;;;9180075;19;20011;-64
2022/11/11 05:27:58;;;;;;;19.73;11.05;;;11.20;82.80;;;;;;9179220;19;20080;-63
2022/11/11 05:31:21;;;;;;;20.73;11.30;;;11.20;82.90;;;;;;9180147;19;20019;-63
2022/11/11 05:34:45;;;;;;;21.67;11.73;;;11.20;82.90;;;;;;9180508;19;20019;-64
2022/11/11 05:38:22;;;;;;;25.65;12.65;;;11.20;82.90;;;;;;9181984;19;20045;-65
2022/11/11 05:41:44;;;;;;;20.00;10.93;;;11.20;82.90;;;;;;9181041;19;20011;-63
2022/11/11 05:45:08;;;;;;;22.02;12.57;;;11.20;82.90;;;;;;9180825;19;20025;-62
2022/11/11 05:48:30;;;;;;;23.77;11.60;;;11.20;82.90;;;;;;9179543;19;20022;-61
2022/11/11 05:51:55;;;;;;;22.80;11.23;;;11.20;83.00;;;;;;9181270;19;20010;-63
2022/11/11 05:55:18;;;;;;;25.05;11.70;;;11.20;82.90;;;;;;9173999;19;20809;-62
2022/11/11 05:58:40;;;;;;;23.23;11.75;;;11.20;83.00;;;;;;9180242;19;20026;-65
2022/11/11 06:02:03;;;;;;;26.55;12.68;;;11.20;83.00;;;;;;9181433;19;20010;-62
2022/11/11 06:05:26;;;;;;;27.95;12.57;;;11.20;83.00;;;;;;9177764;19;20022;-66
2022/11/11 06:08:50;;;;;;;24.90;12.60;;;11.20;83.00;;;;;;9178612;19;20026;-63
2022/11/11 06:12:12;;;;;;;30.02;14.30;;;11.20;83.00;;;;;;9179175;19;20414;-62
2022/11/11 06:15:35;;;;;;;33.53;14.90;;;11.20;83.10;;;;;;9179325;19;20631;-62
2022/11/11 06:18:58;;;;;;;26.63;14.45;;;11.20;83.00;;;;;;9172009;19;20018;-63
2022/11/11 06:22:55;;;;;;;34.63;14.85;;;11.20;83.00;;;;;;9173632;19;20010;-64
2022/11/11 06:26:15;;;;;;;27.50;13.90;;;11.20;83.00;;;;;;9177969;19;20014;-64
2022/11/11 06:29:37;;;;;;;31.77;14.40;;;11.20;83.00;;;;;;9179588;19;20015;-62
2022/11/11 06:33:00;;;;;;;28.23;14.52;;;11.20;83.00;;;;;;9179335;19;20018;-64
2022/11/11 06:36:23;;;;;;;30.65;14.25;;;11.20;83.10;;;;;;9178160;19;20390;-63
2022/11/11 06:39:45;;;;;;;30.40;15.63;;;11.20;83.10;;;;;;9175573;19;20019;-65
2022/11/11 06:43:09;;;;;;;26.70;14.15;;;11.20;83.10;;;;;;9179013;19;20030;-62
2022/11/11 06:46:31;;;;;;;;;;;11.20;83.20;;;;;;9179809;19;20018;-65
2022/11/11 06:49:54;;;;;;;31.75;13.20;;;11.20;83.10;;;;;;9179419;19;20236;-63
2022/11/11 06:53:19;;;;;;;31.85;15.25;;;11.20;83.00;;;;;;9172424;19;20022;-62
2022/11/11 06:56:41;;;;;;;27.75;13.88;;;11.20;83.10;;;;;;9178611;19;20014;-62
2022/11/11 07:00:07;;;;;;;32.22;15.02;;;11.20;83.10;;;;;;9176366;19;20249;-62
2022/11/11 07:03:29;;;;;;;33.45;15.25;;;11.10;83.10;;;;;;9177641;19;20015;-63
2022/11/11 07:06:51;;;;;;;36.65;18.80;;;11.10;83.10;;;;;;9173300;19;20523;-62
2022/11/11 07:10:14;;;;;;;38.42;18.85;;;11.10;83.10;;;;;;9177774;19;20022;-62
2022/11/11 07:13:36;;;;;;;45.30;20.15;;;11.10;83.10;;;;;;9177940;19;20353;-63
2022/11/11 07:17:01;;;;;;;36.90;18.50;;;11.10;83.10;;;;;;9178671;19;20011;-64
2022/11/11 07:20:28;;;;;;;43.90;19.70;;;11.10;83.10;;;;;;9173485;19;20010;-63
2022/11/11 07:23:50;;;;;;;39.70;18.73;;;11.10;83.10;;;;;;9176757;19;20019;-64
2022/11/11 07:27:12;;;;;;;40.67;18.70;;;11.10;83.20;;;;;;9175438;19;20014;-62
2022/11/11 07:30:35;;;;;;;41.28;17.75;;;11.10;83.20;;;;;;9173993;19;20070;-62
2022/11/11 07:33:59;;;;;;;41.00;17.25;;;11.00;83.20;;;;;;9176843;19;20482;-65
2022/11/11 07:37:21;;;;;;;31.23;15.70;;;11.00;83.10;;;;;;9177135;19;20018;-64
2022/11/11 07:40:43;;;;;;;31.17;14.90;;;11.00;83.20;;;;;;9174579;19;20014;-64
2022/11/11 07:44:06;;;;;;;28.55;14.63;;;11.00;83.20;;;;;;9177968;19;20338;-62
2022/11/11 07:47:28;;;;;;;26.25;13.07;;;11.00;83.20;;;;;;9177733;19;20015;-66
2022/11/11 07:50:53;;;;;;;26.98;13.55;;;11.00;83.20;;;;;;9174845;19;20035;-63
2022/11/11 07:54:15;;;;;;;22.08;12.20;;;11.00;83.20;;;;;;9170449;19;20007;-67
2022/11/11 07:57:38;;;;;;;24.25;12.00;;;10.90;83.10;;;;;;9177168;19;20023;-64
2022/11/11 08:01:01;;;;;;;20.88;11.55;;;10.90;83.20;;;;;;9171422;19;20026;-64
2022/11/11 08:04:30;;;;;;;22.52;11.52;;;10.90;83.10;;;;;;9176406;19;20078;-62
2022/11/11 08:07:54;;;;;;;20.15;12.02;;;10.90;83.20;;;;;;9176244;19;20025;-62
2022/11/11 08:13:39;;;;;;;;;;;10.90;83.20;;;;;;9175651;19;20022;-62
2022/11/11 08:15:01;;;;;;;19.10;11.50;;;10.80;83.10;;;;;;9177424;19;20328;-64
2022/11/11 08:18:28;;;;;;;19.25;10.10;;;10.80;83.10;;;;;;9175765;19;20029;-61
2022/11/11 08:21:52;;;;;;;19.77;10.20;;;10.80;83.10;;;;;;9173759;19;20014;-63
2022/11/11 08:25:16;;;;;;;18.67;8.77;;;10.80;83.20;;;;;;9176058;19;20014;-64
2022/11/11 08:28:39;;;;;;;18.45;10.55;;;10.80;83.10;;;;;;9175083;19;20022;-65
2022/11/11 08:32:01;;;;;;;15.75;9.05;;;10.80;83.10;;;;;;9173272;19;20019;-61
2022/11/11 08:35:23;;;;;;;16.23;8.48;;;10.80;83.20;;;;;;9170581;19;20033;-63
2022/11/11 08:38:45;;;;;;;15.75;8.40;;;10.80;83.20;;;;;;9174458;19;20022;-65
2022/11/11 08:42:10;;;;;;;17.40;8.57;;;10.80;83.20;;;;;;9176282;19;20019;-63
2022/11/11 08:45:32;;;;;;;25.38;8.00;;;10.80;83.20;;;;;;9182623;19;20014;-63
2022/11/11 08:48:54;;;;;;;15.18;8.32;;;10.80;83.20;;;;;;9181848;19;20010;-65
2022/11/11 08:52:17;;;;;;;15.95;7.68;;;10.80;83.10;;;;;;9181884;19;20026;-66
2022/11/11 08:55:40;;;;;;;24.02;7.68;;;10.80;83.10;;;;;;9176725;19;20018;-63
2022/11/11 08:59:04;;;;;;;12.68;6.72;;;10.80;83.10;;;;;;9180476;19;20361;-66
2022/11/11 09:02:27;;;;;;;20.35;8.60;;;10.80;83.10;;;;;;9180210;19;20026;-63
2022/11/11 09:05:49;;;;;;;16.48;6.68;;;10.80;83.10;;;;;;9180989;19;20086;-63
2022/11/11 09:09:12;;;;;;;21.63;7.65;;;10.80;83.00;;;;;;9182770;19;20097;-62
2022/11/11 09:12:34;;;;;;;12.38;6.25;;;10.80;83.00;;;;;;9178475;19;20018;-64
2022/11/11 09:15:58;;;;;;;15.48;6.88;;;10.80;83.00;;;;;;9181389;19;20018;-61
2022/11/11 09:19:21;;;;;;;;;;;10.80;83.00;;;;;;9180796;19;20026;-62
2022/11/11 09:22:44;;;;;;;14.05;6.53;;;10.80;83.00;;;;;;9180296;19;19960;-64
2022/11/11 09:26:06;;;;;;;17.50;7.38;;;10.90;83.00;;;;;;9179475;19;20027;-64
2022/11/11 09:29:28;;;;;;;13.18;6.45;;;10.90;83.00;;;;;;9181966;19;20364;-65
2022/11/11 09:32:53;;;;;;;11.10;6.10;;;10.80;83.00;;;;;;9181941;19;20021;-64
2022/11/11 09:36:15;;;;;;;;;;;10.90;83.00;;;;;;9181014;19;20019;-64
2022/11/11 09:39:37;;;;;;;11.55;6.22;;;10.90;83.00;;;;;;9179693;19;19927;-65
2022/11/11 09:43:07;;;;;;;13.32;5.72;;;10.90;82.90;;;;;;9181143;19;20014;-64
2022/11/11 09:46:36;;;;;;;10.32;6.28;;;10.90;82.90;;;;;;9179759;19;20653;-64
2022/11/11 09:50:03;;;;;;;13.60;5.70;;;10.90;83.00;;;;;;9180539;19;20010;-66
2022/11/11 09:53:30;;;;;;;9.98;5.47;;;11.00;83.10;;;;;;9173013;19;20021;-63
2022/11/11 09:56:54;;;;;;;13.77;5.70;;;11.00;83.10;;;;;;9180608;19;20002;-64
2022/11/11 10:00:19;;;;;;;17.73;6.83;;;11.00;83.00;;;;;;9178994;19;20014;-63
2022/11/11 10:03:48;;;;;;;15.50;6.38;;;11.10;83.10;;;;;;9180365;19;20649;-64
2022/11/11 10:07:21;;;;;;;13.77;6.22;;;11.10;83.00;;;;;;9178412;19;20040;-61
2022/11/11 10:10:46;;;;;;;9.23;5.55;;;11.20;83.10;;;;;;9179793;19;20018;-66
2022/11/11 10:14:08;;;;;;;11.98;5.45;;;11.20;83.00;;;;;;9180314;19;20121;-64
2022/11/11 10:17:38;;;;;;;9.00;5.97;;;11.30;83.00;;;;;;9180265;19;20366;-63
2022/11/11 10:21:00;;;;;;;12.70;6.25;;;11.40;83.10;;;;;;9175390;19;20014;-64
2022/11/11 10:24:30;;;;;;;11.52;5.63;;;11.40;83.10;;;;;;9179981;19;20033;-63
2022/11/11 10:27:56;;;;;;;12.05;5.35;;;11.50;83.10;;;;;;9180203;19;20456;-61
2022/11/11 10:31:21;;;;;;;10.10;5.32;;;11.60;83.00;;;;;;9179734;19;20472;-62
2022/11/11 10:34:44;;;;;;;12.07;5.30;;;11.70;83.00;;;;;;9179142;19;20483;-66
2022/11/11 10:38:21;;;;;;;8.20;4.57;;;11.80;82.90;;;;;;9179855;19;20048;-64
2022/11/11 10:41:49;;;;;;;11.63;5.57;;;11.80;82.80;;;;;;9174859;19;20094;-64
2022/11/11 10:45:19;;;;;;;9.60;4.97;;;11.90;82.80;;;;;;9177821;19;20011;-63
2022/11/11 10:48:51;;;;;;;9.75;4.55;;;12.00;82.70;;;;;;9178457;19;20047;-64
2022/11/11 10:52:20;;;;;;;8.70;4.97;;;12.10;82.70;;;;;;9174690;19;20028;-63
2022/11/11 10:55:47;;;;;;;8.68;4.80;;;12.10;82.60;;;;;;9168848;19;20015;-64
2022/11/11 10:59:19;;;;;;;8.45;4.60;;;12.20;82.50;;;;;;9178206;19;20014;-64
2022/11/11 11:02:46;;;;;;;9.35;4.72;;;12.20;82.40;;;;;;9179336;19;20007;-63
2022/11/11 11:06:14;;;;;;;10.15;4.60;;;12.30;82.50;;;;;;9174895;19;20786;-66
2022/11/11 11:09:42;;;;;;;9.68;4.18;;;12.40;82.40;;;;;;9177981;19;20010;-65
2022/11/11 11:13:07;;;;;;;8.05;4.15;;;12.40;82.40;;;;;;9178491;19;20026;-64
2022/11/11 11:16:36;;;;;;;6.50;4.15;;;12.50;82.30;;;;;;9179113;19;20015;-63
2022/11/11 11:20:12;;;;;;;7.13;4.15;;;12.60;82.20;;;;;;9175377;19;20487;-63
2022/11/11 11:23:40;;;;;;;6.68;4.40;;;12.60;82.10;;;;;;9177495;19;20025;-65
2022/11/11 11:27:04;;;;;;;10.15;4.20;;;12.70;82.10;;;;;;9178411;19;20015;-63
2022/11/11 11:30:27;;;;;;;8.65;4.32;;;12.70;82.10;;;;;;9177443;19;20706;-64
2022/11/11 11:33:55;;;;;;;12.43;3.90;;;12.80;82.10;;;;;;9178366;19;20011;-63
2022/11/11 11:37:20;;;;;;;8.50;3.97;;;12.80;82.00;;;;;;9178462;19;20403;-65
2022/11/11 11:40:51;;;;;;;7.32;4.05;;;12.90;82.00;;;;;;9175592;19;20115;-63
2022/11/11 11:44:29;;;;;;;9.15;3.90;;;12.90;82.00;;;;;;9176475;19;20035;-63
2022/11/11 11:48:10;;;;;;;15.45;4.20;;;12.90;81.90;;;;;;9173583;19;20468;-64
2022/11/11 11:52:05;;;;;;;8.00;4.15;;;12.90;81.90;;;;;;9177469;19;20058;-63
2022/11/11 11:55:34;;;;;;;12.10;4.45;;;12.90;81.90;;;;;;9168322;19;20360;-65
2022/11/11 11:59:04;;;;;;;8.40;3.58;;;13.00;82.00;;;;;;9174501;19;20010;-63
2022/11/11 12:02:47;;;;;;;9.60;3.90;;;13.00;82.50;;;;;;9176273;19;20451;-63
2022/11/11 12:06:19;;;;;;;11.00;3.47;;;13.00;81.80;;;;;;9176633;19;20029;-64
2022/11/11 12:09:59;;;;;;;9.65;3.55;;;13.00;81.80;;;;;;9176078;19;20015;-65
2022/11/11 12:13:36;;;;;;;7.20;3.30;;;13.10;81.80;;;;;;9174305;19;20029;-63
2022/11/11 12:17:03;;;;;;;11.73;3.50;;;13.10;81.80;;;;;;9178126;19;20042;-64
2022/11/11 12:20:29;;;;;;;8.15;3.38;;;13.10;81.70;;;;;;9182947;19;20010;-64
2022/11/11 12:24:01;;;;;;;10.32;3.33;;;13.20;81.80;;;;;;9184575;19;20022;-63
2022/11/11 12:27:36;;;;;;;10.20;3.20;;;13.20;81.80;;;;;;9182629;19;20021;-64
2022/11/11 12:31:11;;;;;;;7.78;3.47;;;13.20;81.70;;;;;;9182759;19;20011;-65
2022/11/11 12:34:57;;;;;;;10.80;4.00;;;13.30;81.90;;;;;;9183186;19;20018;-63
2022/11/11 12:38:47;;;;;;;8.10;3.33;;;13.30;81.80;;;;;;9183853;19;20413;-64
2022/11/11 12:42:18;;;;;;;6.25;3.90;;;13.30;81.70;;;;;;9178605;19;20035;-67
2022/11/11 12:45:48;;;;;;;5.53;3.38;;;13.40;81.80;;;;;;9181150;19;20010;-66
2022/11/11 12:49:40;;;;;;;31.67;3.95;;;13.40;81.70;;;;;;9180330;19;20014;-63
2022/11/11 12:53:19;;;;;;;6.60;3.40;;;13.40;81.60;;;;;;9175834;19;20018;-62
2022/11/11 12:56:50;;;;;;;7.07;2.80;;;13.50;81.60;;;;;;9183003;19;20351;-63
2022/11/11 13:00:17;;;;;;;13.85;3.20;;;13.50;81.50;;;;;;9180581;19;20007;-64
2022/11/11 13:04:01;;;;;;;7.20;3.08;;;13.50;81.50;;;;;;9180465;19;20023;-65
2022/11/11 13:07:57;;;;;;;16.33;3.70;;;13.50;81.40;;;;;;9181534;19;20050;-65
2022/11/11 13:11:26;;;;;;;6.00;3.50;;;13.60;81.30;;;;;;9180491;19;20011;-64
2022/11/11 13:14:59;;;;;;;12.50;3.70;;;13.60;81.30;;;;;;9181340;19;20029;-63
2022/11/11 13:18:27;;;;;;;5.03;2.97;;;13.60;81.20;;;;;;9181896;19;20019;-65
2022/11/11 13:21:55;;;;;;;12.00;3.13;;;13.60;81.30;;;;;;9175728;19;20027;-63
2022/11/11 13:25:23;;;;;;;8.10;2.90;;;13.60;81.20;;;;;;9174306;19;20010;-66
2022/11/11 13:28:49;;;;;;;11.75;3.67;;;13.60;81.10;;;;;;9172442;19;20846;-65
2022/11/11 13:32:16;;;;;;;7.70;3.25;;;13.60;81.10;;;;;;9176105;19;20029;-62
2022/11/11 13:35:43;;;;;;;7.80;3.05;;;13.60;81.00;;;;;;9173940;19;20038;-63
2022/11/11 13:39:08;;;;;;;10.10;3.00;;;13.60;81.00;;;;;;9172325;19;20078;-62
2022/11/11 13:42:38;;;;;;;17.35;3.15;;;13.60;81.00;;;;;;9178095;19;20018;-64
2022/11/11 13:46:03;;;;;;;9.52;3.58;;;13.60;80.90;;;;;;9180821;19;20456;-63
2022/11/11 13:49:32;;;;;;;9.73;2.95;;;13.70;81.00;;;;;;9179858;19;20018;-62
2022/11/11 13:52:59;;;;;;;10.10;3.33;;;13.70;81.00;;;;;;9175134;19;20021;-62
2022/11/11 13:56:28;;;;;;;8.85;2.75;;;13.60;80.90;;;;;;9181697;19;20019;-63
2022/11/11 13:59:59;;;;;;;10.85;2.97;;;13.60;80.80;;;;;;9180645;19;20017;-63
2022/11/11 14:03:34;;;;;;;8.35;3.05;;;13.60;80.80;;;;;;9178927;19;20022;-64
2022/11/11 14:06:57;;;;;;;7.50;2.72;;;13.60;80.80;;;;;;9181240;19;20496;-67
2022/11/11 14:10:49;;;;;;;8.05;3.50;;;13.60;80.70;;;;;;9178272;19;20086;-63
2022/11/11 14:14:56;;;;;;;15.88;3.50;;;13.60;80.60;;;;;;9180399;19;20038;-66
2022/11/11 14:18:38;;;;;;;3.47;2.05;;;13.70;80.70;;;;;;9180187;19;20364;-61
2022/11/11 14:22:01;;;;;;;4.53;2.53;;;13.60;80.60;;;;;;9176080;19;20015;-62
2022/11/11 14:25:27;;;;;;;5.78;2.38;;;13.60;80.60;;;;;;9179756;19;20014;-65
2022/11/11 14:28:54;;;;;;;7.72;2.90;;;13.60;80.60;;;;;;9178479;19;20024;-62
2022/11/11 14:32:41;;;;;;;6.47;3.13;;;13.60;80.50;;;;;;9179231;19;20050;-63
2022/11/11 14:36:23;;;;;;;11.32;3.50;;;13.60;80.40;;;;;;9174795;19;20026;-62
2022/11/11 14:39:52;;;;;;;6.57;3.10;;;13.60;80.50;;;;;;9178952;19;20022;-64
2022/11/11 14:43:37;;;;;;;6.75;2.92;;;13.50;80.40;;;;;;9178505;19;20384;-64
2022/11/11 14:47:25;;;;;;;5.57;2.80;;;13.50;80.30;;;;;;9174996;19;20425;-65
2022/11/11 14:50:50;;;;;;;7.28;2.90;;;13.50;80.20;;;;;;9177735;19;20022;-63
2022/11/11 14:54:22;;;;;;;6.90;3.10;;;13.50;80.30;;;;;;9170788;19;20015;-66
2022/11/11 14:57:48;;;;;;;6.10;2.30;;;13.50;80.30;;;;;;9176622;19;20031;-62
2022/11/11 15:01:18;;;;;;;6.25;2.67;;;13.40;80.20;;;;;;9175849;19;20471;-64
2022/11/11 15:04:42;;;;;;;14.57;3.88;;;13.30;80.10;;;;;;9177901;19;20021;-63
2022/11/11 15:08:24;;;;;;;6.95;3.08;;;13.40;80.20;;;;;;9177662;19;20086;-63
2022/11/11 15:11:53;;;;;;;6.15;2.60;;;13.30;80.00;;;;;;9177603;19;20018;-65
2022/11/11 15:15:22;;;;;;;8.60;2.47;;;13.30;80.10;;;;;;9178892;19;20609;-66
2022/11/11 15:19:13;;;;;;;8.40;2.45;;;13.20;80.00;;;;;;9177054;19;20038;-65
2022/11/11 15:22:50;;;;;;;4.28;2.22;;;13.20;79.90;;;;;;9178228;19;20045;-63
2022/11/11 15:26:22;;;;;;;6.55;2.50;;;13.10;79.90;;;;;;9168364;19;20042;-64
2022/11/11 15:30:03;;;;;;;6.15;2.30;;;13.10;79.90;;;;;;9169434;19;20018;-66
2022/11/11 15:33:33;;;;;;;5.05;2.67;;;13.10;79.90;;;;;;9166665;19;20022;-61
2022/11/11 15:36:58;;;;;;;5.50;2.78;;;13.00;79.90;;;;;;9169269;19;20015;-64
2022/11/11 15:40:22;;;;;;;11.73;2.85;;;13.00;79.90;;;;;;9169017;19;20018;-65
2022/11/11 15:43:46;;;;;;;13.43;3.65;;;12.90;79.90;;;;;;9171328;19;20095;-65
2022/11/11 15:47:13;;;;;;;;;;;12.90;79.90;;;;;;9170823;19;20020;-68
2022/11/11 15:50:36;;;;;;;7.47;3.60;;;12.80;79.90;;;;;;9167941;19;19918;-70
2022/11/11 15:54:18;;;;;;;13.98;5.88;;;12.70;79.80;;;;;;9163581;19;20029;-66
2022/11/11 15:57:40;;;;;;;12.75;5.47;;;12.70;79.80;;;;;;9168865;19;20011;-66
2022/11/11 16:01:08;;;;;;;10.88;5.32;;;12.60;79.80;;;;;;9164341;19;20018;-69
2022/11/11 16:04:31;;;;;;;12.38;5.20;;;12.50;79.80;;;;;;9167906;19;20023;-69
2022/11/11 16:08:21;;;;;;;16.50;4.45;;;12.40;79.80;;;;;;9168699;19;20021;-68
2022/11/11 16:11:44;;;;;;;9.98;4.78;;;12.30;79.90;;;;;;9169557;19;20021;-68
2022/11/11 16:15:10;;;;;;;14.57;4.55;;;12.20;79.90;;;;;;9167555;19;20038;-67
2022/11/11 16:18:41;;;;;;;13.02;5.07;;;12.20;79.90;;;;;;9169564;19;20740;-65
2022/11/11 16:22:07;;;;;;;21.27;6.05;;;12.10;79.90;;;;;;9163950;19;20376;-66
2022/11/11 16:25:31;;;;;;;12.98;5.60;;;12.00;79.90;;;;;;9169030;19;20774;-66
2022/11/11 16:28:55;;;;;;;10.63;5.57;;;12.00;80.00;;;;;;9162251;19;20718;-64
2022/11/11 16:32:35;;;;;;;14.75;5.43;;;11.90;80.00;;;;;;9167879;19;20011;-65
2022/11/11 16:36:08;;;;;;;10.10;5.15;;;11.80;80.00;;;;;;9167917;19;20471;-66
2022/11/11 16:39:31;;;;;;;12.10;6.03;;;11.80;80.00;;;;;;9168477;19;20039;-65
2022/11/11 16:42:53;;;;;;;7.40;4.72;;;11.70;80.10;;;;;;9167538;19;20031;-63
2022/11/11 16:46:26;;;;;;;11.65;4.63;;;11.60;80.00;;;;;;9168912;19;20380;-65
2022/11/11 16:50:02;;;;;;;8.15;4.05;;;11.60;80.10;;;;;;9168556;19;20059;-67
2022/11/11 16:53:33;;;;;;;14.88;4.50;;;11.50;80.00;;;;;;9160823;19;20107;-65
2022/11/11 16:56:59;;;;;;;9.52;4.28;;;11.50;80.10;;;;;;9166614;19;20022;-66
2022/11/11 17:00:24;;;;;;;13.18;4.60;;;11.40;80.00;;;;;;9167591;19;20041;-66
2022/11/11 17:03:55;;;;;;;9.35;5.10;;;11.40;80.10;;;;;;9170574;19;20026;-65
2022/11/11 17:07:31;;;;;;;12.80;5.20;;;11.30;80.00;;;;;;9174390;19;20019;-65
2022/11/11 17:10:56;;;;;;;12.98;5.72;;;11.30;80.10;;;;;;9173821;19;20485;-63
2022/11/11 17:14:18;;;;;;;12.88;6.47;;;11.20;80.10;;;;;;9176321;19;20111;-65
2022/11/11 17:17:43;;;;;;;19.05;8.48;;;11.20;80.10;;;;;;9173748;19;20081;-71
2022/11/11 17:21:06;;;;;;;13.63;6.90;;;11.10;80.10;;;;;;9173819;19;20089;-63
2022/11/11 17:24:31;;;;;;;17.35;7.95;;;11.10;80.20;;;;;;9173789;19;20374;-68
2022/11/11 17:27:55;;;;;;;;;;;11.00;80.80;;;;;;9176416;19;20010;-66
2022/11/11 17:31:17;;;;;;;13.75;5.55;;;11.00;80.20;;;;;;9174187;19;19926;-64
2022/11/11 17:34:39;;;;;;;10.43;5.70;;;10.90;80.20;;;;;;9175416;19;20780;-63
2022/11/11 17:38:02;;;;;;;9.13;4.75;;;10.80;80.20;;;;;;9174658;19;20127;-63
2022/11/11 17:41:24;;;;;;;14.13;5.38;;;10.80;80.30;;;;;;9172089;19;20769;-64
2022/11/11 17:44:49;;;;;;;11.38;5.15;;;10.70;80.20;;;;;;9172932;19;20015;-65
2022/11/11 17:48:12;;;;;;;11.27;5.13;;;10.70;80.30;;;;;;9172689;19;20038;-63
2022/11/11 17:51:34;;;;;;;11.95;6.05;;;10.60;80.30;;;;;;9172355;19;20026;-64
2022/11/11 17:54:56;;;;;;;9.25;5.95;;;10.60;80.30;;;;;;9166169;19;20018;-64
2022/11/11 17:58:18;;;;;;;17.02;6.72;;;10.50;80.30;;;;;;9171000;19;20022;-64
2022/11/11 18:01:43;;;;;;;15.80;5.38;;;10.50;80.30;;;;;;9169806;19;20018;-65
2022/11/11 18:05:06;;;;;;;12.93;5.40;;;10.40;80.30;;;;;;9166388;19;20018;-64
2022/11/11 18:08:30;;;;;;;11.63;5.72;;;10.40;80.30;;;;;;9167028;19;20022;-63
2022/11/11 18:11:52;;;;;;;10.35;5.35;;;10.30;80.30;;;;;;9169182;19;20015;-63
2022/11/11 18:15:15;;;;;;;10.35;4.82;;;10.30;80.30;;;;;;9167343;19;20498;-64
2022/11/11 18:18:40;;;;;;;9.68;4.55;;;10.20;80.30;;;;;;9168668;19;20018;-67
2022/11/11 18:22:03;;;;;;;10.88;5.07;;;10.20;80.40;;;;;;9166084;19;20010;-64
2022/11/11 18:25:25;;;;;;;11.80;6.68;;;10.10;80.40;;;;;;9171607;19;20019;-65
2022/11/11 18:28:48;;;;;;;9.52;5.95;;;10.10;80.40;;;;;;9173184;19;20481;-63
2022/11/11 18:32:11;;;;;;;11.43;5.40;;;10.00;80.40;;;;;;9170303;19;20085;-66
2022/11/11 18:35:36;;;;;;;17.63;6.65;;;10.00;80.40;;;;;;9168925;19;20486;-63
2022/11/11 18:38:58;;;;;;;13.05;5.38;;;9.90;80.40;;;;;;9172770;19;20022;-64
2022/11/11 18:42:20;;;;;;;13.18;4.97;;;9.90;80.40;;;;;;9169934;19;20032;-63
2022/11/11 18:45:43;;;;;;;15.05;4.80;;;9.80;80.50;;;;;;9172671;19;20334;-63
2022/11/11 18:49:07;;;;;;;11.88;4.97;;;9.80;80.50;;;;;;9165024;19;20018;-64
2022/11/11 18:52:31;;;;;;;9.82;5.55;;;9.70;80.50;;;;;;9168990;19;20026;-63
2022/11/11 18:55:53;;;;;;;15.88;6.00;;;9.70;80.50;;;;;;9167342;19;20391;-64
2022/11/11 18:59:16;;;;;;;17.27;5.43;;;9.70;80.60;;;;;;9168750;19;20018;-66
2022/11/11 19:02:38;;;;;;;14.73;5.20;;;9.60;80.50;;;;;;9166043;19;20102;-66